Terminal Aerodrome Forecast
Issued by NWS

Home | Current Version | Previous Version | Text Only | Print | Product List | Glossary Off
Versions: 1 2 3 4 5 6 7 8 9 10 11 12 13 14 15 16
000 FTUS41 KBOX 232022 AAB TAFACK TAF AMD KACK 232022Z 2320/2418 20012KT P6SM FEW002 FM232300 21012KT P6SM SCT003 FM240300 23011KT 1/2SM FG BKN003 FM241500 22009KT 3/4SM BR SCT003 BKN045=

USA.gov is the U.S. government's official web portal to all federal, state and local government web resources and services.